createdAt,value
2023-04-02T00:00:13.027Z,8.41
2023-04-02T00:04:46.187Z,8.31
2023-04-02T00:09:45.622Z,8.22
2023-04-02T00:14:45.522Z,8.14
2023-04-02T00:19:43.086Z,8.1
2023-04-02T00:24:42.824Z,8.06
2023-04-02T00:29:42.142Z,8.02
2023-04-02T00:34:41.723Z,7.98
2023-04-02T00:39:41.289Z,7.96
2023-04-02T00:44:40.750Z,7.94
2023-04-02T00:58:52.919Z,7.98
2023-04-02T01:03:50.063Z,8
2023-04-02T01:08:50.526Z,8.03
2023-04-02T01:13:50.678Z,8.06
2023-04-02T01:18:50.156Z,8.1
2023-04-02T01:23:47.826Z,8.18
2023-04-02T01:28:46.796Z,8.22
2023-04-02T01:33:46.427Z,8.25
2023-04-02T01:38:47.839Z,8.29
2023-04-02T01:43:44.456Z,8.31
2023-04-02T01:48:44.686Z,8.22
2023-04-02T01:53:43.796Z,8.13
2023-04-02T01:58:43.172Z,8.1
2023-04-02T02:03:40.385Z,8.09
2023-04-02T02:08:40.285Z,8.09
2023-04-02T02:13:40.993Z,8.1
2023-04-02T02:18:39.003Z,8.14
2023-04-02T02:23:38.278Z,8.13
2023-04-02T02:28:37.946Z,8.1
2023-04-02T02:33:37.329Z,8.05
2023-04-02T02:38:37.289Z,7.99
2023-04-02T02:43:38.053Z,7.92
2023-04-02T02:48:34.475Z,7.85
2023-04-02T02:53:34.649Z,7.79
2023-04-02T02:58:34.172Z,7.76
2023-04-02T03:00:20.352Z,7.74
2023-04-02T03:04:54.977Z,7.71
2023-04-02T03:09:55.114Z,7.7
2023-04-02T03:14:54.691Z,7.7
2023-04-02T03:24:52.281Z,7.72
2023-04-02T03:29:52.400Z,7.73
2023-04-02T03:34:51.730Z,7.73
2023-04-02T03:39:51.789Z,7.71
2023-04-02T03:44:49.016Z,7.72
2023-04-02T03:49:48.936Z,7.72
2023-04-02T03:58:56.323Z,7.75
2023-04-02T04:03:55.855Z,7.78
2023-04-02T04:08:55.711Z,7.81
2023-04-02T04:13:56.053Z,7.81
2023-04-02T04:18:55.449Z,7.8
2023-04-02T04:23:56.890Z,7.75
2023-04-02T04:28:53.176Z,7.71
2023-04-02T04:33:53.269Z,7.68
2023-04-02T04:38:53.541Z,7.65
2023-04-02T04:43:53.012Z,7.63
2023-04-02T04:48:52.895Z,7.65
2023-04-02T04:53:52.932Z,7.66
2023-04-02T04:58:52.684Z,7.69
2023-04-02T05:03:53.529Z,7.71
2023-04-02T05:08:50.166Z,7.72
2023-04-02T05:13:50.299Z,7.73
2023-04-02T05:18:49.710Z,7.74
2023-04-02T05:23:49.653Z,7.75
2023-04-02T05:28:47.294Z,7.77
2023-04-02T05:33:47.014Z,7.77
2023-04-02T05:38:46.391Z,7.77
2023-04-02T05:43:46.008Z,7.74
2023-04-02T05:48:45.432Z,7.73
2023-04-02T05:53:45.217Z,7.75
2023-04-02T05:58:45.803Z,7.77
2023-04-02T06:03:45.102Z,7.8
2023-04-02T06:08:46.076Z,7.84
2023-04-02T06:13:42.836Z,7.88
2023-04-02T06:18:42.668Z,7.91
2023-04-02T06:23:42.627Z,7.95
2023-04-02T06:28:41.920Z,7.99
2023-04-02T06:33:41.877Z,8.03
2023-04-02T06:38:42.009Z,8.06
2023-04-02T06:43:41.474Z,8.09
2023-04-02T06:48:42.291Z,8.13
2023-04-02T06:53:38.818Z,8.14
2023-04-02T06:58:38.933Z,8.14
2023-04-02T07:00:26.413Z,8.16
2023-04-02T07:05:00.532Z,8.18
2023-04-02T07:09:57.836Z,8.18
2023-04-02T07:14:57.755Z,8.2
2023-04-02T07:19:57.076Z,8.25
2023-04-02T07:24:56.792Z,8.3
2023-04-02T07:29:56.263Z,8.39
2023-04-02T07:34:56.091Z,8.45
2023-04-02T07:39:56.509Z,8.51
2023-04-02T07:44:56.025Z,8.55
2023-04-02T07:49:57.584Z,8.67
2023-04-02T07:54:54.783Z,8.78
2023-04-02T07:59:14.940Z,8.81
2023-04-02T08:04:14.247Z,8.88
2023-04-02T08:09:13.625Z,8.93
2023-04-02T08:14:13.245Z,8.95
2023-04-02T08:19:13.367Z,9.02
2023-04-02T08:24:13.112Z,9.09
2023-04-02T08:29:14.216Z,9.18
2023-04-02T08:34:21.185Z,9.34
2023-04-02T08:39:20.805Z,9.49
2023-04-02T08:44:21.289Z,9.82
2023-04-02T08:49:19.348Z,9.97
2023-04-02T08:54:19.080Z,10.09
2023-04-02T08:58:54.787Z,10.24
2023-04-02T09:03:56.011Z,10.4
2023-04-02T09:08:52.775Z,10.63
2023-04-02T09:13:52.988Z,10.76
2023-04-02T09:18:52.423Z,10.93
2023-04-02T09:23:52.726Z,11.01
2023-04-02T09:28:50.358Z,11.26
2023-04-02T09:33:50.374Z,11.39
2023-04-02T09:38:49.420Z,11.41
2023-04-02T09:43:50.677Z,11.46
2023-04-02T09:48:46.843Z,11.54
2023-04-02T09:53:47.136Z,11.66
2023-04-02T09:58:46.687Z,11.7
2023-04-02T10:03:46.591Z,11.75
2023-04-02T10:08:44.228Z,11.65
2023-04-02T10:13:44.033Z,11.6
2023-04-02T10:18:43.362Z,11.51
2023-04-02T10:23:42.900Z,11.57
2023-04-02T10:28:42.485Z,11.52
2023-04-02T10:33:42.183Z,11.5
2023-04-02T10:38:41.962Z,11.39
2023-04-02T10:43:41.575Z,11.39
2023-04-02T10:48:42.817Z,11.65
2023-04-02T10:53:39.376Z,11.6
2023-04-02T10:58:39.188Z,11.61
2023-04-02T11:03:38.792Z,11.94
2023-04-02T11:08:38.902Z,12.22
2023-04-02T11:13:36.951Z,12.31
2023-04-02T11:18:37.177Z,12.48
2023-04-02T11:23:37.138Z,12.73
2023-04-02T11:28:38.578Z,13
2023-04-02T11:33:38.567Z,13.39
2023-04-02T11:38:35.014Z,13.53
2023-04-02T11:43:34.979Z,13.71
2023-04-02T11:48:34.348Z,13.79
2023-04-02T11:53:34.165Z,13.93
2023-04-02T11:58:34.293Z,13.87
2023-04-02T12:00:22.303Z,13.7
2023-04-02T12:04:57.052Z,13.13
2023-04-02T12:09:53.332Z,12.63
2023-04-02T12:14:53.306Z,12.24
2023-04-02T12:19:52.411Z,12.04
2023-04-02T12:24:52.394Z,11.88
2023-04-02T12:29:49.620Z,11.78
2023-04-02T12:34:49.135Z,11.81
2023-04-02T12:39:48.409Z,11.84
2023-04-02T12:44:48.754Z,11.91
2023-04-02T12:49:45.493Z,11.9
2023-04-02T12:54:45.387Z,11.83
2023-04-02T12:59:21.755Z,11.73
2023-04-02T13:04:22.363Z,11.6
2023-04-02T13:09:19.237Z,11.37
2023-04-02T13:14:19.315Z,11.03
2023-04-02T13:19:20.402Z,10.59
2023-04-02T13:24:17.350Z,10.31
2023-04-02T13:29:16.865Z,10.12
2023-04-02T13:34:17.195Z,9.96
2023-04-02T13:39:15.127Z,9.93
2023-04-02T13:44:04.232Z,9.83
2023-04-02T13:49:03.654Z,9.64
2023-04-02T13:54:03.567Z,9.56
2023-04-02T13:58:49.014Z,9.49
2023-04-02T14:03:48.870Z,9.47
2023-04-02T14:08:47.889Z,9.41
2023-04-02T14:13:47.753Z,9.33
2023-04-02T14:18:46.912Z,9.21
2023-04-02T14:23:47.310Z,9.13
2023-04-02T14:28:46.616Z,9.04
2023-04-02T14:33:46.252Z,8.96
2023-04-02T14:38:43.860Z,8.92
2023-04-02T14:48:43.255Z,9
2023-04-02T14:53:42.519Z,9
2023-04-02T14:58:42.444Z,9.03
2023-04-02T15:03:42.249Z,8.89
2023-04-02T15:08:43.579Z,8.76
2023-04-02T15:13:39.232Z,8.68
2023-04-02T15:18:39.622Z,8.58
2023-04-02T15:23:38.959Z,8.53
2023-04-02T15:28:38.968Z,8.46
2023-04-02T15:33:36.738Z,8.41
2023-04-02T15:38:36.212Z,8.41
2023-04-02T15:43:35.732Z,8.42
2023-04-02T15:48:35.313Z,8.39
2023-04-02T15:53:34.673Z,8.37
2023-04-02T15:58:34.290Z,8.33
2023-04-02T16:00:21.322Z,8.31
2023-04-02T16:04:55.730Z,8.2
2023-04-02T16:09:53.535Z,8.14
2023-04-02T16:14:53.362Z,8.14
2023-04-02T16:19:52.545Z,8.14
2023-04-02T16:24:52.215Z,8.14
2023-04-02T16:29:54.571Z,8.05
2023-04-02T16:34:51.459Z,8.02
2023-04-02T16:39:51.589Z,7.94
2023-04-02T16:44:51.077Z,7.89
2023-04-02T16:54:48.889Z,7.76
2023-04-02T16:58:56.906Z,7.72
2023-04-02T17:03:56.409Z,7.7
2023-04-02T17:08:56.150Z,7.7
2023-04-02T17:13:53.770Z,7.67
2023-04-02T17:18:53.465Z,7.59
2023-04-02T17:23:56.147Z,7.52
2023-04-02T17:28:52.511Z,7.49
2023-04-02T17:33:52.161Z,7.44
2023-04-02T17:38:52.513Z,7.41
2023-04-02T17:43:52.157Z,7.38
2023-04-02T17:48:51.961Z,7.31
2023-04-02T17:53:49.583Z,7.21
2023-04-02T17:58:49.137Z,7.12
2023-04-02T18:03:48.233Z,7.06
2023-04-02T18:08:47.939Z,7
2023-04-02T18:13:47.218Z,6.97
2023-04-02T18:18:46.975Z,6.92
2023-04-02T18:23:47.069Z,6.89
2023-04-02T18:28:46.840Z,6.82
2023-04-02T18:33:47.649Z,6.71
2023-04-02T18:38:44.216Z,6.58
2023-04-02T18:43:44.188Z,6.49
2023-04-02T18:48:43.675Z,6.41
2023-04-02T18:53:43.625Z,6.33
2023-04-02T18:58:41.438Z,6.28
2023-04-02T19:03:41.471Z,6.22
2023-04-02T19:08:40.011Z,6.17
2023-04-02T19:13:39.629Z,6.13
2023-04-02T19:18:37.856Z,6.09
2023-04-02T19:28:37.284Z,5.97
2023-04-02T19:33:36.933Z,5.91
2023-04-02T19:38:34.557Z,5.85
2023-04-02T19:43:34.269Z,5.77
2023-04-02T19:48:33.561Z,5.69
2023-04-02T19:53:33.435Z,5.63
2023-04-02T19:58:33.222Z,5.56
2023-04-02T20:04:53.932Z,5.47
2023-04-02T20:09:53.328Z,5.44
2023-04-02T20:14:54.451Z,5.39
2023-04-02T20:19:51.082Z,5.29
2023-04-02T20:24:50.903Z,5.2
2023-04-02T20:29:50.271Z,5.1
2023-04-02T20:34:50.100Z,5.04
2023-04-02T20:39:47.746Z,4.98
2023-04-02T20:44:47.481Z,4.94
2023-04-02T20:49:46.751Z,4.91
2023-04-02T20:54:47.326Z,4.87
2023-04-02T20:59:13.209Z,4.86
2023-04-02T21:04:13.312Z,4.82
2023-04-02T21:09:12.840Z,4.8
2023-04-02T21:14:12.552Z,4.81
2023-04-02T21:19:20.631Z,4.79
2023-04-02T21:24:19.948Z,4.77
2023-04-02T21:29:20.135Z,4.76
2023-04-02T21:34:19.039Z,4.73
2023-04-02T21:39:19.462Z,4.73
2023-04-02T21:44:19.279Z,4.71
2023-04-02T21:49:19.747Z,4.71
2023-04-02T21:54:17.013Z,4.69
2023-04-02T21:58:54.532Z,4.67
2023-04-02T22:03:54.335Z,4.64
2023-04-02T22:08:53.732Z,4.62
2023-04-02T22:13:53.507Z,4.61
2023-04-02T22:18:53.983Z,4.6
2023-04-02T22:23:53.861Z,4.57
2023-04-02T22:28:54.556Z,4.57
2023-04-02T22:33:51.990Z,4.54
2023-04-02T22:38:51.319Z,4.53
2023-04-02T22:43:50.777Z,4.51
2023-04-02T22:48:50.198Z,4.48
2023-04-02T22:53:49.815Z,4.48
2023-04-02T22:58:49.879Z,4.46
2023-04-02T23:03:49.483Z,4.44
2023-04-02T23:08:50.697Z,4.42
2023-04-02T23:13:46.936Z,4.4
2023-04-02T23:18:46.868Z,4.37
2023-04-02T23:23:46.395Z,4.35
2023-04-02T23:28:46.216Z,4.32
2023-04-02T23:33:44.091Z,4.3
2023-04-02T23:38:43.588Z,4.27
2023-04-02T23:43:42.891Z,4.25
2023-04-02T23:48:42.686Z,4.25
2023-04-02T23:53:42.176Z,4.23
2023-04-02T23:58:41.999Z,4.21
